Time;durP1;ratioP1;P1;durP2;ratioP2;P2;SDS_P1;SDS_P2;PMS_P1;PMS_P2;Temp;Humidity;BMP_temperature;BMP_pressure;BME280_temperature;BME280_humidity;BME280_pressure;Samples;Min_cycle;Max_cycle;Signal;HPM_P1;HPM_P2
2023/06/07 00:00:44;;;;;;;8.93;6.88;;;20.20;65.50;;;;;;4995458;28;20496;-65
2023/06/07 00:03:09;;;;;;;9.18;7.22;;;20.20;65.50;;;;;;4994814;28;20022;-65
2023/06/07 00:05:38;;;;;;;10.27;6.75;;;20.10;65.40;;;;;;4992636;28;20057;-66
2023/06/07 00:08:05;;;;;;;10.25;7.60;;;20.20;65.50;;;;;;4994242;28;20117;-65
2023/06/07 00:10:32;;;;;;;7.95;6.68;;;20.10;65.50;;;;;;4996197;28;20441;-63
2023/06/07 00:12:58;;;;;;;8.60;6.50;;;20.10;65.10;;;;;;4993881;28;20043;-67
2023/06/07 00:15:24;;;;;;;9.95;6.00;;;20.10;65.30;;;;;;4998483;28;20397;-67
2023/06/07 00:17:49;;;;;;;7.95;6.82;;;20.10;65.60;;;;;;5000034;28;20038;-65
2023/06/07 00:20:15;;;;;;;7.10;6.40;;;20.20;65.90;;;;;;4995056;28;20100;-67
2023/06/07 00:22:41;;;;;;;7.97;6.97;;;20.20;65.50;;;;;;4996093;28;20493;-67
2023/06/07 00:25:08;;;;;;;7.40;6.20;;;20.20;65.50;;;;;;4996381;28;20104;-68
2023/06/07 00:27:34;;;;;;;7.75;6.07;;;20.10;65.40;;;;;;4992951;28;20030;-67
2023/06/07 00:30:00;;;;;;;9.60;6.20;;;20.10;65.60;;;;;;4995014;28;20579;-65
2023/06/07 00:32:25;;;;;;;6.80;5.85;;;20.10;65.40;;;;;;4990334;28;20490;-66
2023/06/07 00:34:50;;;;;;;6.65;5.95;;;20.10;65.40;;;;;;4995493;28;20088;-65
2023/06/07 00:37:16;;;;;;;7.55;6.05;;;20.20;65.40;;;;;;4998271;28;20049;-67
2023/06/07 00:39:41;;;;;;;6.68;5.95;;;20.20;65.70;;;;;;4994714;28;20481;-65
2023/06/07 00:42:07;;;;;;;8.00;6.03;;;20.10;65.40;;;;;;4989225;28;20065;-66
2023/06/07 00:44:33;;;;;;;7.97;6.38;;;20.10;65.60;;;;;;4999542;28;20096;-67
2023/06/07 00:46:59;;;;;;;7.82;6.18;;;20.10;65.40;;;;;;5003201;28;20484;-66
2023/06/07 00:49:26;;;;;;;7.40;5.65;;;20.10;65.20;;;;;;5001786;28;20497;-66
2023/06/07 00:51:51;;;;;;;7.90;5.45;;;20.10;65.50;;;;;;5000539;28;20049;-66
2023/06/07 00:54:17;;;;;;;8.38;6.43;;;20.10;65.20;;;;;;4996514;28;20389;-67
2023/06/07 00:56:50;;;;;;;6.68;5.93;;;20.20;65.50;;;;;;4997680;28;20123;-67
2023/06/07 00:59:20;;;;;;;8.48;5.93;;;20.10;65.10;;;;;;5000519;28;20105;-67
2023/06/07 01:01:51;;;;;;;7.50;5.63;;;20.20;65.60;;;;;;4994684;28;20111;-66
2023/06/07 01:04:19;;;;;;;6.15;5.35;;;20.20;65.60;;;;;;4995969;28;20041;-66
2023/06/07 01:06:44;;;;;;;6.80;6.10;;;20.10;65.60;;;;;;4995897;28;20059;-66
2023/06/07 01:09:13;;;;;;;7.68;5.80;;;20.10;65.60;;;;;;4996601;28;20158;-66
2023/06/07 01:11:42;;;;;;;6.53;5.72;;;20.10;65.60;;;;;;5002339;28;20352;-65
2023/06/07 01:14:10;;;;;;;5.78;5.18;;;20.10;65.40;;;;;;5002608;28;20030;-67
2023/06/07 01:16:37;;;;;;;6.13;5.25;;;20.10;65.50;;;;;;5003666;28;20398;-67
2023/06/07 01:19:04;;;;;;;6.68;5.38;;;20.10;66.20;;;;;;5000737;28;20408;-66
2023/06/07 01:21:32;;;;;;;7.13;4.97;;;20.20;65.80;;;;;;5001008;28;20065;-65
2023/06/07 01:23:59;;;;;;;6.20;4.82;;;20.10;65.70;;;;;;4998710;28;20101;-67
2023/06/07 01:26:27;;;;;;;5.78;4.85;;;20.10;65.70;;;;;;4986572;28;20045;-67
2023/06/07 01:28:53;;;;;;;6.03;4.75;;;20.10;65.60;;;;;;5001993;28;20504;-66
2023/06/07 01:31:21;;;;;;;7.80;5.15;;;20.20;65.40;;;;;;4997634;28;20121;-66
2023/06/07 01:33:48;;;;;;;7.55;5.30;;;20.10;65.50;;;;;;4995525;28;20037;-66
2023/06/07 01:36:14;;;;;;;6.50;5.82;;;20.10;65.40;;;;;;4995655;28;20248;-67
2023/06/07 01:38:41;;;;;;;6.88;5.55;;;20.10;65.60;;;;;;4994595;28;20030;-67
2023/06/07 01:41:08;;;;;;;5.75;5.15;;;20.10;65.50;;;;;;4996411;28;20064;-67
2023/06/07 01:43:35;;;;;;;6.40;5.28;;;20.10;65.30;;;;;;5001807;28;20611;-66
2023/06/07 01:46:00;;;;;;;6.32;4.82;;;20.10;65.50;;;;;;5002293;28;20034;-66
2023/06/07 01:48:26;;;;;;;6.07;5.47;;;20.10;65.50;;;;;;5000580;28;20038;-66
2023/06/07 01:50:52;;;;;;;6.25;5.47;;;20.20;65.40;;;;;;4999740;28;20499;-66
2023/06/07 01:53:17;;;;;;;7.00;4.75;;;20.10;65.30;;;;;;4997608;28;20033;-66
2023/06/07 01:55:43;;;;;;;5.30;4.70;;;20.10;65.50;;;;;;4995845;28;20034;-66
2023/06/07 01:58:20;;;;;;;5.78;5.07;;;20.10;65.50;;;;;;4996051;28;20485;-66
2023/06/07 02:00:48;;;;;;;5.40;4.90;;;20.10;65.60;;;;;;5001652;28;20026;-66
2023/06/07 02:03:19;;;;;;;5.47;4.65;;;20.10;65.50;;;;;;4997991;28;20038;-66
2023/06/07 02:05:51;;;;;;;6.15;4.60;;;20.10;65.70;;;;;;5000328;28;20038;-66
2023/06/07 02:08:36;;;;;;;5.70;4.50;;;20.10;65.50;;;;;;4999106;28;20061;-67
2023/06/07 02:11:02;;;;;;;5.60;4.70;;;20.10;65.50;;;;;;4997941;28;20026;-67
2023/06/07 02:13:34;;;;;;;6.20;4.40;;;20.10;65.40;;;;;;5000984;28;20035;-66
2023/06/07 02:16:04;;;;;;;5.30;4.80;;;20.10;65.60;;;;;;5001564;28;20034;-65
2023/06/07 02:18:31;;;;;;;5.82;5.22;;;20.10;65.70;;;;;;4999340;28;20053;-67
2023/06/07 02:20:56;;;;;;;7.57;4.65;;;20.10;65.60;;;;;;4999435;28;20084;-66
2023/06/07 02:23:22;;;;;;;6.10;3.88;;;20.10;65.50;;;;;;4996764;28;20037;-66
2023/06/07 02:25:47;;;;;;;4.50;4.10;;;20.10;65.60;;;;;;4996910;28;20041;-65
2023/06/07 02:28:13;;;;;;;6.15;5.10;;;20.10;65.80;;;;;;4997666;28;20519;-66
2023/06/07 02:30:38;;;;;;;5.03;4.53;;;20.10;65.50;;;;;;4991461;28;20039;-66
2023/06/07 02:33:05;;;;;;;6.18;4.07;;;20.10;65.80;;;;;;4997330;28;20033;-66
2023/06/07 02:35:30;;;;;;;4.90;4.40;;;20.10;65.40;;;;;;4992885;28;20472;-66
2023/06/07 02:37:56;;;;;;;4.95;4.43;;;20.10;65.40;;;;;;5000000;28;20046;-67
2023/06/07 02:40:21;;;;;;;4.88;4.13;;;20.10;65.40;;;;;;4999807;28;20148;-67
2023/06/07 02:42:48;;;;;;;4.40;4.00;;;20.10;65.40;;;;;;5001163;28;20616;-66
2023/06/07 02:45:14;;;;;;;5.05;3.63;;;20.10;65.50;;;;;;5001830;28;20404;-66
2023/06/07 02:47:41;;;;;;;5.20;4.57;;;20.10;65.60;;;;;;5000539;28;20030;-66
2023/06/07 02:50:07;;;;;;;4.38;3.95;;;20.10;65.40;;;;;;4997597;28;20564;-66
2023/06/07 02:52:36;;;;;;;4.57;3.75;;;20.10;65.40;;;;;;4994148;28;20424;-67
2023/06/07 02:55:03;;;;;;;4.70;4.03;;;20.10;65.70;;;;;;4993927;28;20073;-66
2023/06/07 02:57:28;;;;;;;4.45;3.88;;;20.10;65.50;;;;;;4997185;28;20081;-66
2023/06/07 02:59:54;;;;;;;4.72;3.97;;;20.10;65.90;;;;;;4994805;28;20432;-66
2023/06/07 03:02:20;;;;;;;6.25;4.68;;;20.10;65.60;;;;;;5000490;28;20026;-65
2023/06/07 03:04:46;;;;;;;3.90;3.60;;;20.10;65.60;;;;;;4999496;28;20053;-66
2023/06/07 03:07:12;;;;;;;5.05;3.72;;;20.10;65.60;;;;;;4995866;28;20079;-66
2023/06/07 03:09:38;;;;;;;3.65;3.30;;;20.10;65.60;;;;;;4998054;28;20080;-66
2023/06/07 03:12:04;;;;;;;5.43;3.72;;;20.10;65.40;;;;;;5000437;28;20552;-63
2023/06/07 03:14:29;;;;;;;5.05;4.35;;;20.10;65.80;;;;;;4999333;28;20030;-66
2023/06/07 03:16:55;;;;;;;4.40;3.88;;;20.10;65.50;;;;;;5000470;28;20026;-67
2023/06/07 03:19:20;;;;;;;4.40;3.35;;;20.10;65.60;;;;;;4997264;28;20378;-66
2023/06/07 03:21:45;;;;;;;4.30;3.85;;;20.10;65.80;;;;;;4997610;28;20105;-66
2023/06/07 03:24:16;;;;;;;6.65;4.15;;;20.10;65.80;;;;;;4995981;28;20034;-66
2023/06/07 03:26:42;;;;;;;4.35;3.75;;;20.10;65.70;;;;;;4997862;28;20084;-66
2023/06/07 03:29:07;;;;;;;4.25;3.85;;;20.10;65.50;;;;;;4995693;28;20761;-66
2023/06/07 03:31:33;;;;;;;4.03;3.58;;;20.10;65.90;;;;;;4994776;28;20124;-65
2023/06/07 03:33:59;;;;;;;3.72;3.42;;;20.10;65.70;;;;;;5001458;28;20036;-66
2023/06/07 03:36:28;;;;;;;5.85;4.25;;;20.10;65.60;;;;;;4996838;28;20102;-66
2023/06/07 03:38:55;;;;;;;4.38;3.97;;;20.10;65.70;;;;;;5000610;28;20042;-66
2023/06/07 03:41:20;;;;;;;3.92;3.53;;;20.10;65.80;;;;;;4999296;28;20045;-66
2023/06/07 03:43:46;;;;;;;4.05;3.60;;;20.10;65.40;;;;;;5000404;28;20112;-66
2023/06/07 03:46:11;;;;;;;3.95;3.55;;;20.10;65.60;;;;;;4998509;28;20476;-66
2023/06/07 03:48:37;;;;;;;3.92;3.53;;;20.10;65.60;;;;;;4997568;28;20049;-66
2023/06/07 03:51:05;;;;;;;4.22;3.83;;;20.10;66.30;;;;;;4996921;28;20069;-66
2023/06/07 03:53:31;;;;;;;3.95;3.58;;;20.10;65.60;;;;;;4998020;28;20052;-65
2023/06/07 03:55:56;;;;;;;4.03;3.33;;;20.10;65.60;;;;;;4997134;28;20037;-67
2023/06/07 03:58:23;;;;;;;3.80;3.35;;;20.10;65.70;;;;;;4993257;28;20226;-66
2023/06/07 04:00:48;;;;;;;4.15;3.72;;;20.10;65.80;;;;;;4997237;28;20045;-65
2023/06/07 04:03:14;;;;;;;3.90;3.50;;;20.10;65.80;;;;;;4994196;28;20103;-66
2023/06/07 04:05:39;;;;;;;4.57;3.00;;;20.10;65.70;;;;;;4996522;28;20093;-66
2023/06/07 04:08:06;;;;;;;3.55;3.25;;;20.10;65.70;;;;;;4998083;28;20034;-66
2023/06/07 04:10:32;;;;;;;3.70;3.40;;;20.10;65.80;;;;;;4999274;28;20037;-66
2023/06/07 04:12:57;;;;;;;3.90;3.50;;;20.10;65.60;;;;;;5001605;28;20413;-66
2023/06/07 04:15:23;;;;;;;3.30;3.00;;;20.10;65.80;;;;;;4998495;28;20092;-66
2023/06/07 04:17:48;;;;;;;3.70;3.35;;;20.10;65.70;;;;;;4998307;28;20034;-65
2023/06/07 04:20:14;;;;;;;3.63;3.33;;;20.10;65.90;;;;;;5003009;28;20037;-67
2023/06/07 04:22:41;;;;;;;4.78;3.47;;;20.10;65.70;;;;;;5002516;28;20030;-67
2023/06/07 04:25:07;;;;;;;3.97;3.10;;;20.10;65.60;;;;;;5009625;28;20238;-66
2023/06/07 04:27:34;;;;;;;5.10;3.70;;;20.10;65.60;;;;;;5016516;28;20050;-66
2023/06/07 04:30:01;;;;;;;5.63;3.88;;;20.10;65.90;;;;;;5019503;28;20041;-65
2023/06/07 04:32:27;;;;;;;4.13;3.72;;;20.10;65.70;;;;;;5023004;28;20041;-66
2023/06/07 04:34:53;;;;;;;3.53;3.22;;;20.10;65.80;;;;;;5020067;28;20030;-65
2023/06/07 04:37:19;;;;;;;4.30;3.33;;;20.10;65.80;;;;;;5020998;28;20231;-66
2023/06/07 04:39:49;;;;;;;4.55;3.50;;;20.10;65.70;;;;;;5022551;28;20049;-69
2023/06/07 04:42:19;;;;;;;3.28;2.90;;;20.10;65.60;;;;;;5021495;28;20037;-65
2023/06/07 04:44:45;;;;;;;4.93;3.35;;;20.10;65.70;;;;;;5022266;28;20035;-66
2023/06/07 04:47:10;;;;;;;4.82;3.33;;;20.10;66.00;;;;;;5013033;28;20080;-66
2023/06/07 04:49:38;;;;;;;4.60;3.40;;;20.10;65.60;;;;;;5000233;28;20080;-69
2023/06/07 04:52:05;;;;;;;3.25;2.85;;;20.10;65.70;;;;;;5003571;28;20137;-65
2023/06/07 04:54:32;;;;;;;4.13;2.90;;;20.10;65.70;;;;;;4996817;28;20030;-66
2023/06/07 04:56:58;;;;;;;3.90;3.38;;;20.10;65.60;;;;;;4993980;28;20022;-66
2023/06/07 04:59:24;;;;;;;3.85;3.42;;;20.10;65.80;;;;;;5002684;28;20756;-66
2023/06/07 05:01:50;;;;;;;5.68;4.03;;;20.00;65.80;;;;;;4998827;28;20034;-67
2023/06/07 05:04:19;;;;;;;7.18;4.55;;;20.00;65.60;;;;;;4997177;28;20050;-68
2023/06/07 05:06:45;;;;;;;8.32;4.68;;;20.10;65.90;;;;;;5004191;28;20096;-67
2023/06/07 05:09:10;;;;;;;10.40;5.47;;;20.10;65.80;;;;;;4999029;28;20294;-67
2023/06/07 05:11:36;;;;;;;18.83;10.07;;;20.10;65.80;;;;;;5002300;28;20132;-66
2023/06/07 05:14:02;;;;;;;25.88;12.25;;;20.10;65.60;;;;;;5001540;28;20057;-67
2023/06/07 05:16:27;;;;;;;20.42;11.13;;;20.10;66.00;;;;;;5000415;28;20635;-63
2023/06/07 05:18:53;;;;;;;23.58;11.50;;;20.00;65.80;;;;;;5003890;28;20045;-67
2023/06/07 05:21:18;;;;;;;25.88;12.07;;;20.00;65.80;;;;;;4997306;28;20057;-68
2023/06/07 05:23:44;;;;;;;33.83;13.60;;;20.10;65.80;;;;;;4995362;28;20164;-65
2023/06/07 05:26:10;;;;;;;28.30;13.45;;;20.10;65.90;;;;;;4993481;28;20031;-67
2023/06/07 05:28:36;;;;;;;35.55;15.77;;;20.10;65.80;;;;;;5001018;28;20117;-65
2023/06/07 05:31:01;;;;;;;34.00;13.55;;;20.10;65.70;;;;;;4994987;28;20053;-67
2023/06/07 05:33:28;;;;;;;41.10;16.83;;;20.10;65.80;;;;;;4995922;28;20050;-62
2023/06/07 05:35:54;;;;;;;34.53;15.77;;;20.10;66.00;;;;;;4999425;28;20101;-67
2023/06/07 05:38:20;;;;;;;29.42;15.00;;;20.10;65.80;;;;;;5001014;28;20041;-67
2023/06/07 05:40:46;;;;;;;42.47;17.50;;;20.00;65.80;;;;;;4999986;28;20042;-68
2023/06/07 05:43:11;;;;;;;36.65;17.13;;;20.00;66.00;;;;;;5000448;28;20034;-67
2023/06/07 05:45:37;;;;;;;39.10;16.33;;;20.10;65.60;;;;;;5000678;28;20076;-67
2023/06/07 05:48:02;;;;;;;36.58;16.67;;;20.10;65.80;;;;;;4998763;28;20061;-65
2023/06/07 05:50:28;;;;;;;38.83;16.67;;;20.10;65.70;;;;;;4998677;28;20034;-66
2023/06/07 05:52:57;;;;;;;36.10;16.52;;;20.10;66.30;;;;;;4999020;28;20081;-67
2023/06/07 05:55:25;;;;;;;36.47;17.15;;;20.00;65.90;;;;;;4997462;28;20026;-67
2023/06/07 05:57:51;;;;;;;39.70;16.58;;;20.10;65.60;;;;;;5002040;28;20038;-66
2023/06/07 06:00:17;;;;;;;32.45;16.63;;;20.10;65.80;;;;;;4999490;28;20030;-66
2023/06/07 06:02:45;;;;;;;29.13;15.05;;;20.10;65.70;;;;;;4993745;28;20110;-67
2023/06/07 06:05:12;;;;;;;35.40;15.80;;;20.00;65.80;;;;;;4999885;28;20038;-67
2023/06/07 06:07:38;;;;;;;37.95;14.95;;;20.00;65.90;;;;;;4999658;28;20037;-66
2023/06/07 06:10:04;;;;;;;39.33;16.70;;;20.10;65.70;;;;;;5000526;28;20327;-67
2023/06/07 06:12:30;;;;;;;31.10;15.90;;;20.10;65.80;;;;;;5000585;28;20253;-66
2023/06/07 06:14:56;;;;;;;33.47;15.20;;;20.00;65.80;;;;;;5001617;28;20033;-66
2023/06/07 06:17:22;;;;;;;33.47;15.77;;;20.10;65.80;;;;;;4998204;28;20034;-67
2023/06/07 06:19:48;;;;;;;30.08;15.38;;;20.00;65.70;;;;;;5000616;28;20045;-66
2023/06/07 06:22:13;;;;;;;31.60;16.20;;;20.10;65.90;;;;;;4992827;28;20026;-66
2023/06/07 06:24:39;;;;;;;31.02;14.38;;;20.10;65.70;;;;;;4989824;28;20029;-67
2023/06/07 06:27:06;;;;;;;27.48;14.35;;;20.10;66.60;;;;;;4997308;28;20485;-67
2023/06/07 06:29:32;;;;;;;33.50;15.05;;;20.10;65.80;;;;;;4998183;28;20096;-67
2023/06/07 06:31:57;;;;;;;29.85;14.05;;;20.10;65.90;;;;;;4999126;28;20710;-67
2023/06/07 06:34:23;;;;;;;31.77;14.30;;;20.10;66.10;;;;;;5002138;28;20038;-66
2023/06/07 06:36:49;;;;;;;30.25;14.40;;;20.00;66.00;;;;;;5000396;28;20041;-67
2023/06/07 06:39:15;;;;;;;33.22;15.27;;;20.00;65.70;;;;;;4999251;28;20046;-67
2023/06/07 06:41:40;;;;;;;26.35;13.27;;;20.00;65.60;;;;;;4999055;28;20038;-67
2023/06/07 06:44:06;;;;;;;28.95;13.52;;;20.00;65.80;;;;;;4999058;28;20081;-66
2023/06/07 06:46:31;;;;;;;29.52;13.95;;;20.10;66.00;;;;;;5009004;28;20148;-67
2023/06/07 06:48:57;;;;;;;25.63;13.57;;;20.10;65.90;;;;;;5003724;28;20808;-67
2023/06/07 06:51:22;;;;;;;28.70;15.07;;;20.10;65.80;;;;;;4991055;28;20568;-67
2023/06/07 06:53:48;;;;;;;23.27;12.32;;;20.10;66.10;;;;;;4994712;28;20096;-67
2023/06/07 06:56:13;;;;;;;23.58;12.30;;;20.10;66.00;;;;;;4994444;28;20053;-67
2023/06/07 06:58:40;;;;;;;26.27;12.13;;;20.10;65.60;;;;;;4998753;28;20042;-60
2023/06/07 07:01:07;;;;;;;25.67;12.02;;;20.10;66.70;;;;;;4999915;28;20428;-66
2023/06/07 07:03:32;;;;;;;23.98;11.25;;;20.10;65.60;;;;;;4999811;28;20038;-67
2023/06/07 07:05:58;;;;;;;26.33;11.85;;;20.10;65.90;;;;;;4999613;28;20639;-67
2023/06/07 07:08:24;;;;;;;23.25;11.15;;;20.10;66.30;;;;;;4997751;28;20026;-66
2023/06/07 07:10:50;;;;;;;17.35;11.20;;;20.10;65.80;;;;;;4999012;28;20042;-66
2023/06/07 07:13:16;;;;;;;35.15;12.02;;;20.10;66.00;;;;;;4998528;28;20152;-66
2023/06/07 07:15:41;;;;;;;24.88;11.20;;;20.10;66.00;;;;;;4998526;28;20044;-66
2023/06/07 07:18:08;;;;;;;22.33;10.30;;;20.10;66.20;;;;;;4996954;28;20125;-67
2023/06/07 07:20:33;;;;;;;19.80;10.10;;;20.10;66.30;;;;;;4985634;28;20384;-66
2023/06/07 07:23:01;;;;;;;20.05;10.48;;;20.10;66.70;;;;;;5003184;28;20030;-65
2023/06/07 07:25:27;;;;;;;19.10;10.38;;;20.10;66.20;;;;;;4999026;28;20038;-67
2023/06/07 07:27:53;;;;;;;18.27;10.05;;;20.10;66.20;;;;;;4997166;28;20516;-67
2023/06/07 07:30:18;;;;;;;18.83;10.35;;;20.10;66.00;;;;;;4993336;28;20030;-66
2023/06/07 07:32:44;;;;;;;16.13;9.60;;;20.10;65.80;;;;;;4999652;28;20064;-66
2023/06/07 07:35:09;;;;;;;20.17;11.13;;;20.10;66.10;;;;;;4998167;28;20086;-65
2023/06/07 07:37:35;;;;;;;17.58;9.70;;;20.10;66.20;;;;;;4996996;28;20036;-65
2023/06/07 07:40:01;;;;;;;20.52;10.75;;;20.10;66.40;;;;;;5000983;28;21314;-67
2023/06/07 07:42:27;;;;;;;21.15;10.15;;;20.10;66.00;;;;;;4998044;28;20505;-68
2023/06/07 07:44:53;;;;;;;16.50;9.93;;;20.10;66.10;;;;;;4996251;28;20117;-68
2023/06/07 07:47:18;;;;;;;17.92;9.60;;;20.10;66.20;;;;;;4994954;28;20114;-67
2023/06/07 07:49:44;;;;;;;17.85;9.52;;;20.20;66.10;;;;;;4994275;28;20026;-66
2023/06/07 07:52:09;;;;;;;18.63;9.82;;;20.10;66.10;;;;;;4990275;28;20115;-68
2023/06/07 07:54:35;;;;;;;14.60;8.60;;;20.10;66.20;;;;;;4993955;28;20041;-67
2023/06/07 07:57:01;;;;;;;18.40;9.35;;;20.10;66.20;;;;;;4995527;28;20489;-68
2023/06/07 07:59:26;;;;;;;19.85;10.18;;;20.10;66.00;;;;;;4996775;28;20037;-65
2023/06/07 08:01:52;;;;;;;15.73;9.00;;;20.20;66.20;;;;;;4999344;28;20053;-67
2023/06/07 08:04:18;;;;;;;17.17;8.82;;;20.20;66.00;;;;;;4996591;28;20026;-66
2023/06/07 08:06:45;;;;;;;16.85;7.93;;;20.10;66.10;;;;;;4997183;28;20558;-65
2023/06/07 08:09:11;;;;;;;16.40;9.05;;;20.20;66.70;;;;;;4998721;28;20037;-67
2023/06/07 08:11:37;;;;;;;14.25;7.78;;;20.20;66.30;;;;;;4997352;28;20104;-66
2023/06/07 08:14:02;;;;;;;13.98;7.40;;;20.20;66.10;;;;;;4994976;28;20081;-66
2023/06/07 08:16:29;;;;;;;15.02;9.73;;;20.20;66.10;;;;;;4998076;28;20034;-66
2023/06/07 08:18:57;;;;;;;13.75;8.65;;;20.20;66.10;;;;;;4992590;28;20052;-67
2023/06/07 08:21:22;;;;;;;15.80;8.77;;;20.20;66.00;;;;;;4998284;28;20034;-67
2023/06/07 08:23:48;;;;;;;13.20;7.70;;;20.20;66.00;;;;;;4992663;28;20515;-67
2023/06/07 08:26:15;;;;;;;13.73;7.75;;;20.20;66.30;;;;;;4995671;28;20029;-66
2023/06/07 08:28:41;;;;;;;13.95;7.93;;;20.20;66.30;;;;;;4998778;28;20441;-68
2023/06/07 08:31:06;;;;;;;11.25;7.38;;;20.20;66.20;;;;;;5001886;28;20056;-66
2023/06/07 08:33:32;;;;;;;16.17;7.88;;;20.20;66.40;;;;;;4996233;28;20039;-67
2023/06/07 08:35:57;;;;;;;11.90;7.35;;;20.20;66.20;;;;;;4994191;28;20442;-68
2023/06/07 08:38:23;;;;;;;12.75;6.93;;;20.20;66.10;;;;;;4999171;28;20042;-64
2023/06/07 08:40:48;;;;;;;11.60;7.15;;;20.20;66.20;;;;;;4996630;28;20125;-67
2023/06/07 08:43:14;;;;;;;13.30;7.40;;;20.20;66.20;;;;;;4996052;28;20057;-66
2023/06/07 08:45:39;;;;;;;13.88;7.60;;;20.20;66.40;;;;;;4991051;28;20081;-66
2023/06/07 08:48:06;;;;;;;19.40;7.60;;;20.20;66.30;;;;;;4998172;28;20034;-66
2023/06/07 08:50:32;;;;;;;11.82;6.57;;;20.20;66.50;;;;;;4999218;28;20050;-67
2023/06/07 08:53:05;;;;;;;11.07;7.13;;;20.20;66.90;;;;;;4995625;28;20030;-68
2023/06/07 08:55:33;;;;;;;11.15;6.95;;;20.20;66.40;;;;;;4995869;28;20461;-67
2023/06/07 08:57:59;;;;;;;10.88;6.85;;;20.20;66.40;;;;;;5000001;28;20038;-67
2023/06/07 09:00:25;;;;;;;12.98;6.20;;;20.20;66.80;;;;;;5007231;28;20096;-67
2023/06/07 09:02:52;;;;;;;12.35;7.60;;;20.20;66.60;;;;;;5001264;28;20030;-65
2023/06/07 09:05:19;;;;;;;12.15;7.40;;;20.20;66.90;;;;;;4998693;28;20038;-67
2023/06/07 09:07:45;;;;;;;11.20;6.70;;;20.20;67.10;;;;;;5004312;28;20034;-66
2023/06/07 09:10:10;;;;;;;10.07;6.53;;;20.20;66.80;;;;;;5004371;28;20034;-67
2023/06/07 09:12:36;;;;;;;10.48;6.55;;;20.20;67.20;;;;;;5007237;28;20077;-65
2023/06/07 09:15:02;;;;;;;8.88;6.45;;;20.20;67.00;;;;;;5000948;28;20062;-66
2023/06/07 09:17:52;;;;;;;20.48;6.65;;;20.30;67.30;;;;;;5008838;28;20085;-65
2023/06/07 09:20:23;;;;;;;10.77;6.88;;;20.30;67.10;;;;;;5001179;28;20133;-66
2023/06/07 09:23:09;;;;;;;12.80;6.78;;;20.20;67.00;;;;;;4998493;28;20137;-66
2023/06/07 09:25:35;;;;;;;9.73;6.63;;;20.30;67.00;;;;;;4999746;28;20277;-67
2023/06/07 09:28:09;;;;;;;11.07;7.20;;;20.30;67.30;;;;;;5002830;28;20179;-67
2023/06/07 09:30:36;;;;;;;8.53;6.50;;;20.30;67.50;;;;;;5003118;28;20045;-66
2023/06/07 09:33:03;;;;;;;9.00;6.20;;;20.30;67.60;;;;;;5002431;28;20034;-66
2023/06/07 09:35:29;;;;;;;7.55;6.03;;;20.30;67.80;;;;;;5001763;28;20033;-66
2023/06/07 09:37:54;;;;;;;8.63;6.55;;;20.30;67.40;;;;;;5002547;28;20102;-66
2023/06/07 09:40:21;;;;;;;9.32;6.43;;;20.30;67.40;;;;;;5001477;28;20041;-66
2023/06/07 09:42:57;;;;;;;7.30;5.57;;;20.30;67.50;;;;;;5010477;28;21176;-67
2023/06/07 09:45:23;;;;;;;9.88;6.70;;;20.30;67.40;;;;;;5007124;28;20045;-67
2023/06/07 09:48:00;;;;;;;8.65;6.20;;;20.30;67.80;;;;;;5004802;28;20038;-65
2023/06/07 09:50:25;;;;;;;10.10;6.20;;;20.30;67.70;;;;;;4998632;28;20033;-67
2023/06/07 09:52:56;;;;;;;9.25;6.05;;;20.30;67.70;;;;;;4994602;28;20046;-66
2023/06/07 09:55:27;;;;;;;8.50;6.50;;;20.30;67.70;;;;;;4995799;28;20419;-66
2023/06/07 09:57:52;;;;;;;9.30;6.65;;;20.30;67.80;;;;;;4998939;28;20121;-67
2023/06/07 10:00:19;;;;;;;11.45;7.13;;;20.30;67.90;;;;;;5001834;28;20120;-64
2023/06/07 10:02:47;;;;;;;7.55;5.50;;;20.30;67.70;;;;;;5005029;28;20037;-66
2023/06/07 10:05:21;;;;;;;8.95;5.82;;;20.30;67.80;;;;;;5000543;28;20657;-67
2023/06/07 10:07:49;;;;;;;7.55;5.85;;;20.30;67.50;;;;;;5002604;28;20038;-67
2023/06/07 10:10:17;;;;;;;9.18;6.13;;;20.30;67.70;;;;;;4997615;28;20405;-66
2023/06/07 10:12:46;;;;;;;6.85;5.72;;;20.30;67.50;;;;;;4996762;28;20050;-67
2023/06/07 10:15:24;;;;;;;7.20;5.75;;;20.30;67.50;;;;;;4998331;28;20026;-67
2023/06/07 10:18:21;;;;;;;6.75;5.70;;;20.30;67.70;;;;;;4997000;28;20391;-67
2023/06/07 10:20:57;;;;;;;8.00;6.05;;;20.40;67.40;;;;;;4999131;28;21337;-65
2023/06/07 10:23:28;;;;;;;;;;;20.30;67.50;;;;;;4997838;28;20028;-67
2023/06/07 10:25:59;;;;;;;8.07;6.07;;;20.30;67.30;;;;;;5000114;28;20455;-66
2023/06/07 10:28:33;;;;;;;6.85;6.20;;;20.30;67.50;;;;;;4997169;28;20057;-66
2023/06/07 10:31:05;;;;;;;7.95;6.07;;;20.30;67.50;;;;;;4988280;28;20053;-67
2023/06/07 10:33:33;;;;;;;8.70;5.90;;;20.30;67.30;;;;;;4997778;28;20041;-66
2023/06/07 10:35:59;;;;;;;8.68;5.68;;;20.30;67.30;;;;;;4999639;28;20033;-66
2023/06/07 10:38:26;;;;;;;8.40;6.20;;;20.30;67.20;;;;;;4994947;28;20458;-66
2023/06/07 10:40:52;;;;;;;7.82;6.60;;;20.30;67.20;;;;;;4997039;28;20026;-62
2023/06/07 10:43:19;;;;;;;5.90;5.18;;;20.30;67.30;;;;;;5003618;28;20099;-66
2023/06/07 10:45:44;;;;;;;8.55;5.95;;;20.40;67.20;;;;;;4993479;28;20038;-66
2023/06/07 10:48:33;;;;;;;10.95;5.80;;;20.40;67.40;;;;;;4997098;28;20437;-66
2023/06/07 10:50:59;;;;;;;6.53;5.82;;;20.30;67.50;;;;;;4997936;28;20493;-66
2023/06/07 10:53:24;;;;;;;5.88;5.05;;;20.40;67.20;;;;;;4997797;28;20034;-66
2023/06/07 10:55:50;;;;;;;6.18;5.57;;;20.40;67.10;;;;;;4995779;28;20030;-65
2023/06/07 10:58:34;;;;;;;6.25;5.65;;;20.40;67.20;;;;;;4995790;28;20086;-66
2023/06/07 11:01:24;;;;;;;6.05;5.45;;;20.40;67.30;;;;;;4998446;28;20068;-64
2023/06/07 11:03:50;;;;;;;7.65;5.80;;;20.40;67.30;;;;;;4993216;28;20033;-66
2023/06/07 11:06:16;;;;;;;9.98;6.80;;;20.40;67.50;;;;;;4997520;28;20037;-66
2023/06/07 11:08:42;;;;;;;8.68;6.53;;;20.30;67.30;;;;;;4999004;28;20030;-66
2023/06/07 11:11:42;;;;;;;6.97;5.95;;;20.40;67.30;;;;;;4996104;28;20474;-66
2023/06/07 11:14:08;;;;;;;7.22;6.03;;;20.40;67.30;;;;;;4997893;28;20041;-66
2023/06/07 11:16:34;;;;;;;8.30;5.70;;;20.40;67.20;;;;;;4996897;28;20022;-66
2023/06/07 11:19:05;;;;;;;7.88;5.97;;;20.40;67.40;;;;;;4998991;28;20034;-66
2023/06/07 11:21:53;;;;;;;7.03;5.28;;;20.40;67.00;;;;;;4995985;28;20496;-66
2023/06/07 11:24:19;;;;;;;7.38;5.65;;;20.40;67.10;;;;;;4995819;28;20034;-65
2023/06/07 11:26:45;;;;;;;6.45;5.85;;;20.40;67.30;;;;;;4991805;28;20493;-66
2023/06/07 11:29:11;;;;;;;7.75;6.38;;;20.40;67.20;;;;;;5006573;28;20030;-66
2023/06/07 11:31:37;;;;;;;7.15;6.38;;;20.40;67.20;;;;;;4994854;28;20489;-66
2023/06/07 11:34:02;;;;;;;8.15;6.72;;;20.40;67.00;;;;;;4994745;28;20524;-65
2023/06/07 11:36:32;;;;;;;6.45;5.70;;;20.40;67.20;;;;;;4999811;28;20033;-66
2023/06/07 11:39:01;;;;;;;6.50;5.90;;;20.40;67.20;;;;;;4994708;28;20449;-65
2023/06/07 11:41:27;;;;;;;6.80;5.97;;;20.40;67.00;;;;;;4989784;28;20029;-63
2023/06/07 11:43:53;;;;;;;6.72;5.53;;;20.40;67.10;;;;;;4996277;28;20077;-67
2023/06/07 11:46:20;;;;;;;6.70;6.10;;;20.40;67.20;;;;;;5000986;28;20088;-66
2023/06/07 11:48:45;;;;;;;6.35;5.78;;;20.40;67.20;;;;;;4996489;28;20033;-66
2023/06/07 11:51:11;;;;;;;7.20;5.38;;;20.40;67.10;;;;;;4996990;28;20037;-66
2023/06/07 11:53:37;;;;;;;5.85;5.15;;;20.40;67.30;;;;;;4994169;28;20516;-66
2023/06/07 11:56:03;;;;;;;5.95;5.38;;;20.40;67.20;;;;;;4995851;28;20081;-66
2023/06/07 11:58:29;;;;;;;6.25;5.65;;;20.40;67.10;;;;;;4997611;28;20504;-66
2023/06/07 12:00:56;;;;;;;8.35;5.68;;;20.40;67.10;;;;;;4992274;28;20080;-66
2023/06/07 12:03:23;;;;;;;7.13;5.55;;;20.40;67.20;;;;;;4992199;28;20030;-65
2023/06/07 12:05:49;;;;;;;6.50;5.43;;;20.40;67.30;;;;;;4999728;28;20523;-66
2023/06/07 12:08:17;;;;;;;5.95;5.20;;;20.40;67.10;;;;;;4995284;28;20022;-65
2023/06/07 12:10:45;;;;;;;7.10;5.28;;;20.40;67.20;;;;;;4997670;28;20404;-66
2023/06/07 12:13:16;;;;;;;6.38;5.78;;;20.40;67.20;;;;;;4994616;28;20026;-66
2023/06/07 12:15:46;;;;;;;6.30;5.70;;;20.40;67.20;;;;;;4995241;28;20447;-64
2023/06/07 12:18:19;;;;;;;5.93;5.35;;;20.40;67.20;;;;;;4996660;28;20030;-65
2023/06/07 12:20:47;;;;;;;7.05;5.97;;;20.40;67.10;;;;;;4993507;28;20080;-66
2023/06/07 12:23:14;;;;;;;6.72;5.20;;;20.40;67.30;;;;;;4992879;28;20054;-67
2023/06/07 12:25:41;;;;;;;7.65;6.10;;;20.40;67.30;;;;;;4994183;28;20115;-67
2023/06/07 12:28:09;;;;;;;6.63;6.03;;;20.40;67.20;;;;;;4997849;28;20034;-66
2023/06/07 12:30:38;;;;;;;8.00;6.40;;;20.40;67.40;;;;;;4992228;28;20030;-66
2023/06/07 12:33:04;;;;;;;6.18;5.65;;;20.40;67.40;;;;;;4996088;28;20034;-65
2023/06/07 12:35:40;;;;;;;6.13;5.53;;;20.40;67.30;;;;;;4997307;28;20031;-66
2023/06/07 12:38:06;;;;;;;;;;;20.40;67.30;;;;;;5000197;28;20022;-66
2023/06/07 12:40:32;;;;;;;6.93;6.22;;;20.40;67.40;;;;;;4998219;28;19923;-66